Time,TemperatureF,DewpointF,PressureIn,WindDirection,WindDirectionDegrees,WindSpeedMPH,WindSpeedGustMPH,Humidity,HourlyPrecipIn,Conditions,Clouds,dailyrainin,SolarRadiationWatts/m^2,SoftwareType,DateUTC
2013-09-29 00:02:00,58.5,54.8,30.10,NW,325,0.0,0.0,88,0.00,,CLR,0.00,0.00,VWS V14.01,2013-09-29 05:02:00,
2013-09-29 00:07:00,58.4,54.7,30.10,NW,325,0.0,0.0,88,0.00,,CLR,0.00,0.00,VWS V14.01,2013-09-29 05:07:00,
2013-09-29 00:12:00,58.2,54.5,30.10,NW,325,0.0,0.0,88,0.00,,CLR,0.00,0.00,VWS V14.01,2013-09-29 05:12:00,
2013-09-29 00:17:00,58.1,54.4,30.09,NW,325,0.0,0.0,88,0.00,,CLR,0.00,0.00,VWS V14.01,2013-09-29 05:17:00,
2013-09-29 00:22:00,58.1,54.4,30.09,NW,325,0.0,0.0,88,0.00,,CLR,0.00,0.00,VWS V14.01,2013-09-29 05:22:00,
2013-09-29 00:27:00,57.9,54.2,30.09,NW,325,0.0,0.0,88,0.00,,CLR,0.00,0.00,VWS V14.01,2013-09-29 05:27:00,
2013-09-29 00:32:00,57.8,54.1,30.09,NW,325,0.0,0.0,88,0.00,,CLR,0.00,0.00,VWS V14.01,2013-09-29 05:32:00,
2013-09-29 00:37:00,57.6,53.9,30.09,NW,325,0.0,0.0,88,0.00,,CLR,0.00,0.00,VWS V14.01,2013-09-29 05:37:00,
2013-09-29 00:42:00,57.4,54.0,30.09,NW,325,0.0,0.0,88,0.00,,CLR,0.00,0.00,VWS V14.01,2013-09-29 05:42:00,
2013-09-29 00:47:00,57.4,54.0,30.09,NW,325,0.0,0.0,88,0.00,,CLR,0.00,0.00,VWS V14.01,2013-09-29 05:47:00,
2013-09-29 00:52:00,57.4,54.0,30.09,NW,325,0.0,0.0,88,0.00,,CLR,0.00,0.00,VWS V14.01,2013-09-29 05:52:00,
2013-09-29 00:57:00,57.3,53.9,30.09,NW,325,0.0,0.0,88,0.00,,CLR,0.00,0.00,VWS V14.01,2013-09-29 05:57:00,
2013-09-29 01:02:00,57.1,53.7,30.09,NW,325,0.0,0.0,88,0.00,,CLR,0.00,0.00,VWS V14.01,2013-09-29 06:02:00,
2013-09-29 01:07:00,57.0,53.6,30.09,NW,325,0.0,0.0,88,0.00,,CLR,0.00,0.00,VWS V14.01,2013-09-29 06:07:00,
2013-09-29 01:12:00,56.8,53.4,30.09,NW,325,0.0,0.0,88,0.00,,CLR,0.00,0.00,VWS V14.01,2013-09-29 06:12:00,
2013-09-29 01:17:00,56.8,53.4,30.09,NW,325,0.0,0.0,88,0.00,,CLR,0.00,0.00,VWS V14.01,2013-09-29 06:17:00,
2013-09-29 01:21:00,56.7,53.3,30.09,NW,325,0.0,0.0,88,0.00,,CLR,0.00,0.00,VWS V14.01,2013-09-29 06:21:00,
2013-09-29 01:26:00,56.5,53.2,30.09,NW,325,0.0,0.0,88,0.00,,CLR,0.00,0.00,VWS V14.01,2013-09-29 06:26:00,
2013-09-29 01:31:00,56.4,53.0,30.09,NW,325,0.0,0.0,88,0.00,,CLR,0.00,0.00,VWS V14.01,2013-09-29 06:31:00,
2013-09-29 01:36:00,56.3,53.0,30.09,NW,325,0.0,0.0,88,0.00,,CLR,0.00,0.00,VWS V14.01,2013-09-29 06:36:00,
2013-09-29 01:41:00,56.1,52.8,30.09,NW,325,0.0,0.0,88,0.00,,CLR,0.00,0.00,VWS V14.01,2013-09-29 06:41:00,
2013-09-29 01:46:00,56.1,52.8,30.09,NW,325,0.0,0.0,88,0.00,,CLR,0.00,0.00,VWS V14.01,2013-09-29 06:46:00,
2013-09-29 01:51:00,56.1,52.8,30.09,NW,325,0.0,0.0,88,0.00,,CLR,0.00,0.00,VWS V14.01,2013-09-29 06:51:00,
2013-09-29 01:56:00,56.1,53.1,30.09,NW,325,0.0,0.0,90,0.00,,CLR,0.00,0.00,VWS V14.01,2013-09-29 06:56:00,
2013-09-29 02:01:00,56.3,53.3,30.09,NW,325,0.0,0.0,90,0.00,,CLR,0.00,0.00,VWS V14.01,2013-09-29 07:01:00,
2013-09-29 02:06:00,56.3,53.3,30.09,NW,325,0.0,0.0,90,0.00,,CLR,0.00,0.00,VWS V14.01,2013-09-29 07:06:00,
2013-09-29 02:11:00,56.3,53.3,30.09,NW,325,0.0,0.0,90,0.00,,CLR,0.00,0.00,VWS V14.01,2013-09-29 07:11:00,
2013-09-29 02:16:00,56.1,53.1,30.09,NW,325,0.0,0.0,90,0.00,,CLR,0.00,0.00,VWS V14.01,2013-09-29 07:16:00,
2013-09-29 02:21:00,56.3,53.6,30.09,NW,325,0.0,0.0,90,0.00,,CLR,0.00,0.00,VWS V14.01,2013-09-29 07:21:00,
2013-09-29 02:26:00,56.4,53.7,30.09,NW,325,0.0,0.0,90,0.00,,CLR,0.00,0.00,VWS V14.01,2013-09-29 07:26:00,
2013-09-29 02:31:00,56.5,53.8,30.09,NW,325,0.0,0.0,90,0.00,,CLR,0.00,0.00,VWS V14.01,2013-09-29 07:31:00,
2013-09-29 02:36:00,56.5,53.8,30.09,NW,325,0.0,0.0,90,0.00,,CLR,0.00,0.00,VWS V14.01,2013-09-29 07:36:00,
2013-09-29 02:41:00,56.4,53.7,30.09,NW,325,0.0,0.0,90,0.00,,CLR,0.00,0.00,VWS V14.01,2013-09-29 07:41:00,
2013-09-29 02:46:00,56.3,53.6,30.08,NW,325,0.0,0.0,90,0.00,,CLR,0.00,0.00,VWS V14.01,2013-09-29 07:46:00,
2013-09-29 02:51:00,56.1,53.4,30.08,NW,325,0.0,0.0,90,0.00,,CLR,0.00,0.00,VWS V14.01,2013-09-29 07:51:00,
2013-09-29 02:56:00,56.1,53.4,30.08,NW,325,0.0,0.0,90,0.00,,CLR,0.00,0.00,VWS V14.01,2013-09-29 07:56:00,
2013-09-29 03:01:00,56.0,53.6,30.08,NW,325,0.0,0.0,92,0.00,,BKN001,0.00,0.00,VWS V14.01,2013-09-29 08:01:00,
2013-09-29 03:06:00,56.0,53.6,30.08,NW,325,0.0,0.0,92,0.00,,BKN001,0.00,0.00,VWS V14.01,2013-09-29 08:06:00,
2013-09-29 03:11:00,56.1,53.7,30.08,NW,325,0.0,0.0,92,0.00,,BKN001,0.00,0.00,VWS V14.01,2013-09-29 08:11:00,
2013-09-29 03:16:00,56.3,53.9,30.08,NW,325,0.0,0.0,92,0.00,,BKN001,0.00,0.00,VWS V14.01,2013-09-29 08:16:00,
2013-09-29 03:21:00,56.3,53.9,30.08,NW,325,0.0,0.0,92,0.00,,BKN001,0.00,0.00,VWS V14.01,2013-09-29 08:21:00,
2013-09-29 03:26:00,56.4,54.0,30.08,NW,325,0.0,0.0,92,0.00,,BKN001,0.00,0.00,VWS V14.01,2013-09-29 08:26:00,
2013-09-29 03:31:00,56.3,53.9,30.08,NW,325,0.0,0.0,92,0.00,,BKN001,0.00,0.00,VWS V14.01,2013-09-29 08:31:00,
2013-09-29 03:36:00,56.1,53.7,30.08,NW,325,0.0,0.0,92,0.00,,BKN001,0.00,0.00,VWS V14.01,2013-09-29 08:36:00,
2013-09-29 03:41:00,56.1,53.7,30.08,NW,325,0.0,0.0,92,0.00,,BKN001,0.00,0.00,VWS V14.01,2013-09-29 08:41:00,
2013-09-29 03:46:00,56.0,53.6,30.08,NW,325,0.0,0.0,92,0.00,,BKN001,0.00,0.00,VWS V14.01,2013-09-29 08:46:00,
2013-09-29 03:51:00,55.8,53.4,30.08,NW,325,0.0,0.0,92,0.00,,BKN001,0.00,0.00,VWS V14.01,2013-09-29 08:51:00,
2013-09-29 03:56:00,55.7,53.3,30.08,NW,325,0.0,0.0,92,0.00,,BKN001,0.00,0.00,VWS V14.01,2013-09-29 08:56:00,
2013-09-29 04:01:00,55.5,53.1,30.07,NW,325,0.0,0.0,92,0.00,,SCT001,0.00,0.00,VWS V14.01,2013-09-29 09:01:00,
2013-09-29 04:06:00,55.4,53.0,30.07,NW,325,0.0,0.0,92,0.00,,SCT001,0.00,0.00,VWS V14.01,2013-09-29 09:06:00,
2013-09-29 04:11:00,55.2,52.8,30.07,NW,325,0.0,0.0,92,0.00,,SCT001,0.00,0.00,VWS V14.01,2013-09-29 09:11:00,
2013-09-29 04:16:00,55.2,52.8,30.07,NW,325,0.0,0.0,92,0.00,,SCT001,0.00,0.00,VWS V14.01,2013-09-29 09:16:00,
2013-09-29 04:21:00,55.1,52.7,30.07,NW,325,0.0,0.0,92,0.00,,SCT001,0.00,0.00,VWS V14.01,2013-09-29 09:21:00,
2013-09-29 04:26:00,54.9,52.5,30.07,NW,325,0.0,0.0,92,0.00,,SCT001,0.00,0.00,VWS V14.01,2013-09-29 09:26:00,
2013-09-29 04:31:00,54.9,52.5,30.07,NW,325,0.0,0.0,92,0.00,,SCT001,0.00,0.00,VWS V14.01,2013-09-29 09:31:00,
2013-09-29 04:36:00,54.9,52.5,30.07,NW,325,0.0,0.0,92,0.00,,SCT001,0.00,0.00,VWS V14.01,2013-09-29 09:36:00,
2013-09-29 04:41:00,54.9,52.5,30.07,NW,325,0.0,0.0,92,0.00,,SCT001,0.00,0.00,VWS V14.01,2013-09-29 09:41:00,
2013-09-29 04:46:00,54.9,52.8,30.08,NW,325,0.0,0.0,92,0.00,,SCT001,0.00,0.00,VWS V14.01,2013-09-29 09:46:00,
2013-09-29 04:51:00,54.9,52.8,30.08,NW,325,0.0,0.0,92,0.00,,SCT001,0.00,0.00,VWS V14.01,2013-09-29 09:51:00,
2013-09-29 04:56:00,54.9,52.8,30.08,NW,325,0.0,0.0,92,0.00,,SCT001,0.00,0.00,VWS V14.01,2013-09-29 09:56:00,
2013-09-29 05:01:00,54.9,52.8,30.08,NW,325,0.0,0.0,92,0.00,,BKN001,0.00,0.00,VWS V14.01,2013-09-29 10:01:00,
2013-09-29 05:06:00,54.9,52.8,30.08,NW,325,0.0,0.0,92,0.00,,BKN001,0.00,0.00,VWS V14.01,2013-09-29 10:06:00,
2013-09-29 05:11:00,54.8,52.7,30.08,NW,325,0.0,0.0,92,0.00,,BKN001,0.00,0.00,VWS V14.01,2013-09-29 10:11:00,
2013-09-29 05:16:00,54.8,52.7,30.08,NW,325,0.0,0.0,92,0.00,,BKN001,0.00,0.00,VWS V14.01,2013-09-29 10:16:00,
2013-09-29 05:21:00,54.8,52.7,30.08,NW,325,0.0,0.0,92,0.00,,BKN001,0.00,0.00,VWS V14.01,2013-09-29 10:21:00,
2013-09-29 05:26:00,54.6,52.5,30.08,NW,325,0.0,0.0,92,0.00,,BKN001,0.00,0.00,VWS V14.01,2013-09-29 10:26:00,
2013-09-29 05:31:00,54.6,52.5,30.08,NW,325,0.0,0.0,92,0.00,,BKN001,0.00,0.00,VWS V14.01,2013-09-29 10:31:00,
2013-09-29 05:36:00,54.8,52.7,30.08,NW,325,0.0,0.0,92,0.00,,BKN001,0.00,0.00,VWS V14.01,2013-09-29 10:36:00,
2013-09-29 05:41:00,54.8,52.7,30.08,NW,325,0.0,0.0,92,0.00,,BKN001,0.00,0.00,VWS V14.01,2013-09-29 10:41:00,
2013-09-29 05:46:00,54.8,53.0,30.09,NW,325,0.0,0.0,94,0.00,,BKN001,0.00,0.00,VWS V14.01,2013-09-29 10:46:00,
2013-09-29 05:51:00,54.8,53.0,30.09,NW,325,0.0,0.0,94,0.00,,BKN001,0.00,0.00,VWS V14.01,2013-09-29 10:51:00,
2013-09-29 05:56:00,54.9,53.1,30.09,NW,325,0.0,0.0,94,0.00,,BKN001,0.00,0.00,VWS V14.01,2013-09-29 10:56:00,
2013-09-29 06:01:00,54.9,53.1,30.09,NW,325,0.0,0.0,94,0.00,,OVC001,0.00,0.00,VWS V14.01,2013-09-29 11:01:00,
2013-09-29 06:06:00,54.9,53.1,30.09,NW,325,0.0,0.0,94,0.00,,OVC001,0.00,0.00,VWS V14.01,2013-09-29 11:06:00,
2013-09-29 06:11:00,54.9,53.1,30.09,NW,325,0.0,0.0,94,0.00,,OVC001,0.00,0.00,VWS V14.01,2013-09-29 11:11:00,
2013-09-29 06:16:00,54.9,53.1,30.10,NW,325,0.0,0.0,94,0.00,,OVC001,0.00,0.00,VWS V14.01,2013-09-29 11:16:00,
2013-09-29 06:21:00,55.1,53.3,30.10,NW,325,0.0,0.0,94,0.00,,OVC001,0.00,0.00,VWS V14.01,2013-09-29 11:21:00,
2013-09-29 06:26:00,55.1,53.3,30.10,NW,325,0.0,0.0,94,0.00,,OVC001,0.00,0.00,VWS V14.01,2013-09-29 11:26:00,
2013-09-29 06:31:00,55.1,53.3,30.10,NW,325,0.0,0.0,94,0.00,,OVC001,0.00,0.00,VWS V14.01,2013-09-29 11:31:00,
2013-09-29 06:36:00,54.9,53.1,30.10,NW,325,0.0,0.0,94,0.00,,OVC001,0.00,0.00,VWS V14.01,2013-09-29 11:36:00,
2013-09-29 06:41:00,54.9,53.1,30.10,NW,325,0.0,0.0,94,0.00,,OVC001,0.00,0.00,VWS V14.01,2013-09-29 11:41:00,
2013-09-29 06:46:00,54.9,53.1,30.10,NW,325,0.0,0.0,94,0.00,,OVC001,0.00,0.00,VWS V14.01,2013-09-29 11:46:00,
2013-09-29 06:51:00,54.8,53.0,30.10,NW,325,0.0,0.0,94,0.00,,OVC001,0.00,0.00,VWS V14.01,2013-09-29 11:51:00,
2013-09-29 06:56:00,54.6,52.8,30.10,NW,325,0.0,0.0,94,0.00,,OVC001,0.00,0.00,VWS V14.01,2013-09-29 11:56:00,
2013-09-29 07:01:00,54.6,52.8,30.10,NW,325,0.0,0.0,94,0.00,,OVC001,0.00,0.00,VWS V14.01,2013-09-29 12:01:00,
2013-09-29 07:06:00,54.5,52.7,30.10,NW,325,0.0,0.0,94,0.00,,OVC001,0.00,0.00,VWS V14.01,2013-09-29 12:06:00,
2013-09-29 07:11:00,54.5,52.7,30.10,NW,325,0.0,0.0,94,0.00,,OVC001,0.00,0.00,VWS V14.01,2013-09-29 12:11:00,
2013-09-29 07:16:00,54.3,52.5,30.10,NW,325,0.0,0.0,94,0.00,,OVC001,0.00,0.00,VWS V14.01,2013-09-29 12:16:00,
2013-09-29 07:21:00,54.3,52.5,30.10,NW,325,0.0,0.0,94,0.00,,OVC001,0.00,5.75,VWS V14.01,2013-09-29 12:21:00,
2013-09-29 07:26:00,54.3,52.8,30.10,NW,325,0.0,0.0,94,0.00,,OVC001,0.00,8.05,VWS V14.01,2013-09-29 12:26:00,
2013-09-29 07:31:00,54.3,52.8,30.11,NW,325,0.0,0.0,94,0.00,,OVC001,0.00,10.35,VWS V14.01,2013-09-29 12:31:00,
2013-09-29 07:36:00,54.3,52.8,30.11,NW,325,0.0,0.0,94,0.00,,OVC001,0.00,16.10,VWS V14.01,2013-09-29 12:36:00,
2013-09-29 07:41:00,54.5,53.0,30.11,NW,325,0.0,0.0,94,0.00,,OVC001,0.00,18.40,VWS V14.01,2013-09-29 12:41:00,
2013-09-29 07:46:00,54.5,53.0,30.11,NW,325,0.0,0.0,94,0.00,,OVC001,0.00,29.90,VWS V14.01,2013-09-29 12:46:00,
2013-09-29 07:51:00,54.5,53.0,30.11,NW,325,0.0,0.0,94,0.00,,OVC001,0.00,36.80,VWS V14.01,2013-09-29 12:51:00,
2013-09-29 07:56:00,54.5,53.0,30.11,NW,325,0.0,0.0,94,0.00,,OVC001,0.00,42.55,VWS V14.01,2013-09-29 12:56:00,
2013-09-29 08:01:00,54.6,53.1,30.11,NW,325,0.0,0.0,94,0.00,,,0.00,62.10,VWS V14.01,2013-09-29 13:01:00,
2013-09-29 08:06:00,54.6,53.1,30.11,NW,325,0.0,0.0,94,0.00,,,0.00,87.40,VWS V14.01,2013-09-29 13:06:00,
2013-09-29 08:11:00,54.9,53.3,30.11,NW,325,0.0,0.0,94,0.00,,,0.00,88.55,VWS V14.01,2013-09-29 13:11:00,
2013-09-29 08:16:00,55.1,53.5,30.11,NW,325,0.0,0.0,94,0.00,,,0.00,80.50,VWS V14.01,2013-09-29 13:16:00,
2013-09-29 08:21:00,55.1,53.5,30.11,NW,325,0.0,0.0,94,0.00,,,0.00,82.80,VWS V14.01,2013-09-29 13:21:00,
2013-09-29 08:26:00,55.2,53.9,30.11,NW,325,0.0,0.0,96,0.00,,,0.00,129.95,VWS V14.01,2013-09-29 13:26:00,
2013-09-29 08:31:00,55.5,54.2,30.11,NW,325,0.0,0.0,96,0.00,,,0.00,133.40,VWS V14.01,2013-09-29 13:31:00,
2013-09-29 08:36:00,55.4,54.1,30.11,NW,325,0.0,0.0,96,0.00,,,0.00,125.35,VWS V14.01,2013-09-29 13:36:00,
2013-09-29 08:41:00,55.5,54.2,30.11,NW,325,0.0,0.0,96,0.00,,,0.00,146.05,VWS V14.01,2013-09-29 13:41:00,
2013-09-29 08:46:00,56.0,54.7,30.11,NW,325,0.0,0.0,96,0.00,,,0.00,170.20,VWS V14.01,2013-09-29 13:46:00,
2013-09-29 08:51:00,55.5,54.2,30.11,NE,37,0.0,0.0,96,0.00,,,0.00,157.55,VWS V14.01,2013-09-29 13:51:00,
2013-09-29 08:56:00,55.4,54.1,30.11,NE,36,0.0,0.0,96,0.00,,,0.00,131.10,VWS V14.01,2013-09-29 13:56:00,
2013-09-29 09:01:00,55.5,54.2,30.11,NE,36,0.0,0.0,96,0.00,,,0.00,149.50,VWS V14.01,2013-09-29 14:01:00,
2013-09-29 09:06:00,55.5,54.2,30.11,NE,36,0.0,0.0,96,0.00,,,0.00,138.00,VWS V14.01,2013-09-29 14:06:00,
2013-09-29 09:11:00,55.5,54.2,30.11,NE,36,0.0,0.0,96,0.00,,,0.00,178.25,VWS V14.01,2013-09-29 14:11:00,
2013-09-29 09:16:00,55.7,54.4,30.11,NE,36,0.0,0.0,96,0.00,,,0.00,184.00,VWS V14.01,2013-09-29 14:16:00,
2013-09-29 09:21:00,55.8,54.5,30.11,NE,36,0.0,0.0,96,0.00,,,0.00,146.05,VWS V14.01,2013-09-29 14:21:00,
2013-09-29 09:26:00,56.1,55.1,30.11,NE,36,0.0,0.0,96,0.00,,,0.00,186.30,VWS V14.01,2013-09-29 14:26:00,
2013-09-29 09:31:00,56.5,55.5,30.11,NE,36,0.0,1.0,96,0.01,,,0.01,365.70,VWS V14.01,2013-09-29 14:31:00,
2013-09-29 09:36:00,57.0,56.0,30.11,NE,36,0.0,0.0,96,0.01,,,0.01,349.60,VWS V14.01,2013-09-29 14:36:00,
2013-09-29 09:41:00,57.0,56.0,30.11,NE,36,0.0,0.0,96,0.01,,,0.01,173.65,VWS V14.01,2013-09-29 14:41:00,
2013-09-29 09:46:00,56.4,55.4,30.11,NE,36,0.0,0.0,96,0.01,,,0.01,197.80,VWS V14.01,2013-09-29 14:46:00,
2013-09-29 09:51:00,56.7,55.7,30.11,NE,37,0.0,0.0,96,0.01,,,0.01,256.45,VWS V14.01,2013-09-29 14:51:00,
2013-09-29 09:56:00,57.4,56.4,30.11,NE,36,0.0,0.0,96,0.01,,,0.01,381.80,VWS V14.01,2013-09-29 14:56:00,
2013-09-29 10:01:00,58.5,57.5,30.11,NE,36,0.0,0.0,96,0.01,,,0.01,549.70,VWS V14.01,2013-09-29 15:01:00,
2013-09-29 10:06:00,59.3,58.3,30.11,NE,37,3.0,4.0,96,0.01,,,0.01,565.80,VWS V14.01,2013-09-29 15:06:00,
2013-09-29 10:11:00,59.3,58.3,30.11,NE,37,0.0,0.0,96,0.01,,,0.01,552.00,VWS V14.01,2013-09-29 15:11:00,
2013-09-29 10:16:00,59.7,58.7,30.11,NE,37,0.0,0.0,96,0.01,,,0.01,480.70,VWS V14.01,2013-09-29 15:16:00,
2013-09-29 10:21:00,59.6,58.3,30.11,NE,36,0.0,0.0,96,0.01,,,0.01,589.95,VWS V14.01,2013-09-29 15:21:00,
2013-09-29 10:26:00,60.5,59.2,30.11,NE,36,0.0,0.0,96,0.01,,,0.01,608.35,VWS V14.01,2013-09-29 15:26:00,
2013-09-29 10:31:00,60.3,58.4,30.11,NE,36,0.0,0.0,94,0.00,,,0.01,622.15,VWS V14.01,2013-09-29 15:31:00,
2013-09-29 10:36:00,61.3,59.1,30.11,NE,36,0.0,0.0,92,0.00,,,0.01,632.50,VWS V14.01,2013-09-29 15:36:00,
2013-09-29 10:41:00,61.9,58.8,30.11,NNE,30,0.0,0.0,90,0.00,,,0.01,648.60,VWS V14.01,2013-09-29 15:41:00,
2013-09-29 10:46:00,62.5,59.1,30.11,NNE,30,0.0,0.0,88,0.00,,,0.01,661.25,VWS V14.01,2013-09-29 15:46:00,
2013-09-29 10:51:00,62.7,58.3,30.11,NNE,30,0.0,0.0,86,0.00,,,0.01,672.75,VWS V14.01,2013-09-29 15:51:00,
2013-09-29 10:56:00,63.3,58.9,30.11,NNE,30,0.0,0.0,86,0.00,,,0.01,683.10,VWS V14.01,2013-09-29 15:56:00,
2013-09-29 11:01:00,64.1,58.7,30.10,NNE,28,0.0,0.0,82,0.00,,SCT002,0.01,695.75,VWS V14.01,2013-09-29 16:01:00,
2013-09-29 11:06:00,64.5,58.0,30.10,NNE,28,0.0,0.0,80,0.00,,SCT002,0.01,704.95,VWS V14.01,2013-09-29 16:06:00,
2013-09-29 11:11:00,64.8,58.0,30.10,NNE,30,1.0,2.0,78,0.00,,SCT002,0.01,723.35,VWS V14.01,2013-09-29 16:11:00,
2013-09-29 11:16:00,65.3,57.7,30.10,NNE,28,0.0,0.0,76,0.00,,SCT002,0.01,731.40,VWS V14.01,2013-09-29 16:16:00,
2013-09-29 11:21:00,65.4,58.2,30.10,NNE,28,5.0,5.0,78,0.00,,SCT002,0.01,739.45,VWS V14.01,2013-09-29 16:21:00,
2013-09-29 11:26:00,65.6,57.3,30.10,NNE,27,0.0,0.0,74,0.00,,SCT002,0.01,749.80,VWS V14.01,2013-09-29 16:26:00,
2013-09-29 11:31:00,65.9,57.6,30.10,NNE,28,3.0,4.0,74,0.00,,SCT002,0.01,762.45,VWS V14.01,2013-09-29 16:31:00,
2013-09-29 11:36:00,66.1,57.4,30.10,NNE,26,0.0,1.0,74,0.00,,SCT002,0.01,771.65,VWS V14.01,2013-09-29 16:36:00,
2013-09-29 11:41:00,65.9,57.2,30.10,NNE,29,0.0,0.0,74,0.00,,SCT002,0.01,773.95,VWS V14.01,2013-09-29 16:41:00,
2013-09-29 11:46:00,66.9,57.8,30.09,NE,38,4.0,4.0,72,0.00,,SCT002,0.01,786.60,VWS V14.01,2013-09-29 16:46:00,
2013-09-29 11:51:00,67.1,58.0,30.09,NE,42,1.0,1.0,72,0.00,,SCT002,0.01,792.35,VWS V14.01,2013-09-29 16:51:00,
2013-09-29 11:56:00,67.4,57.9,30.09,NE,55,0.0,0.0,72,0.00,,SCT002,0.01,805.00,VWS V14.01,2013-09-29 16:56:00,
2013-09-29 12:01:00,67.4,57.9,30.09,NE,49,5.0,5.0,72,0.00,,CLR,0.01,798.10,VWS V14.01,2013-09-29 17:01:00,
2013-09-29 12:06:00,68.1,58.2,30.09,NE,48,0.0,0.0,70,0.00,,CLR,0.01,792.35,VWS V14.01,2013-09-29 17:06:00,
2013-09-29 12:11:00,68.7,57.5,30.09,NE,48,0.0,4.0,68,0.00,,CLR,0.01,818.80,VWS V14.01,2013-09-29 17:11:00,
2013-09-29 12:16:00,68.4,57.2,30.08,NE,41,3.0,3.0,68,0.00,,CLR,0.01,826.85,VWS V14.01,2013-09-29 17:16:00,
2013-09-29 12:21:00,69.2,57.2,30.08,NE,36,0.0,0.0,66,0.00,,CLR,0.01,824.55,VWS V14.01,2013-09-29 17:21:00,
2013-09-29 12:26:00,68.9,56.0,30.08,NE,34,0.0,0.0,64,0.00,,CLR,0.01,837.20,VWS V14.01,2013-09-29 17:26:00,
2013-09-29 12:31:00,68.7,55.4,30.08,NE,41,0.0,2.0,62,0.00,,CLR,0.01,840.65,VWS V14.01,2013-09-29 17:31:00,
2013-09-29 12:36:00,69.4,56.0,30.08,NE,37,3.0,3.0,62,0.00,,CLR,0.01,845.25,VWS V14.01,2013-09-29 17:36:00,
2013-09-29 12:41:00,70.1,55.8,30.08,NE,40,0.0,0.0,60,0.00,,CLR,0.01,845.25,VWS V14.01,2013-09-29 17:41:00,
2013-09-29 12:46:00,70.2,54.0,30.07,NE,54,1.0,4.0,56,0.00,,CLR,0.01,853.30,VWS V14.01,2013-09-29 17:46:00,
2013-09-29 12:51:00,70.9,55.2,30.07,NE,46,0.0,0.0,58,0.00,,CLR,0.01,853.30,VWS V14.01,2013-09-29 17:51:00,
2013-09-29 12:56:00,70.4,56.1,30.07,NE,46,0.0,0.0,60,0.00,,CLR,0.01,855.60,VWS V14.01,2013-09-29 17:56:00,
2013-09-29 13:01:00,70.7,55.5,30.07,NE,48,0.0,5.0,58,0.00,,CLR,0.01,848.70,VWS V14.01,2013-09-29 18:01:00,
2013-09-29 13:06:00,70.7,56.8,30.07,NNE,32,0.0,0.0,62,0.00,,CLR,0.01,848.70,VWS V14.01,2013-09-29 18:06:00,
2013-09-29 13:11:00,70.7,56.4,30.07,NE,46,4.0,6.0,60,0.00,,CLR,0.01,856.75,VWS V14.01,2013-09-29 18:11:00,
2013-09-29 13:16:00,70.4,56.5,30.06,NE,46,0.0,0.0,62,0.00,,CLR,0.01,853.30,VWS V14.01,2013-09-29 18:16:00,
2013-09-29 13:21:00,70.9,55.6,30.06,NE,44,0.0,0.0,58,0.00,,CLR,0.01,847.55,VWS V14.01,2013-09-29 18:21:00,
2013-09-29 13:26:00,71.6,56.3,30.06,NE,44,0.0,0.0,58,0.00,,CLR,0.01,847.55,VWS V14.01,2013-09-29 18:26:00,
2013-09-29 13:31:00,71.4,56.1,30.05,North,9,0.0,0.0,58,0.00,,CLR,0.01,855.60,VWS V14.01,2013-09-29 18:31:00,
2013-09-29 13:36:00,71.8,56.5,30.05,NNE,20,0.0,0.0,58,0.00,,CLR,0.01,847.55,VWS V14.01,2013-09-29 18:36:00,
2013-09-29 13:41:00,71.9,56.1,30.05,NNE,22,0.0,0.0,58,0.00,,CLR,0.01,845.25,VWS V14.01,2013-09-29 18:41:00,
2013-09-29 13:46:00,71.9,55.1,30.04,NNE,21,0.0,2.0,56,0.00,,CLR,0.01,840.65,VWS V14.01,2013-09-29 18:46:00,
2013-09-29 13:51:00,72.3,55.0,30.04,NNE,20,0.0,0.0,54,0.00,,CLR,0.01,838.35,VWS V14.01,2013-09-29 18:51:00,
2013-09-29 13:56:00,72.5,54.7,30.04,NE,36,0.0,0.0,54,0.00,,CLR,0.01,834.90,VWS V14.01,2013-09-29 18:56:00,
2013-09-29 14:01:00,73.3,54.4,30.03,NE,35,0.0,4.0,52,0.00,,CLR,0.01,830.30,VWS V14.01,2013-09-29 19:01:00,
2013-09-29 14:06:00,72.5,53.6,30.03,NNE,30,0.0,0.0,52,0.00,,CLR,0.01,826.85,VWS V14.01,2013-09-29 19:06:00,
2013-09-29 14:11:00,72.5,54.2,30.03,North,355,4.0,4.0,52,0.00,,CLR,0.01,818.80,VWS V14.01,2013-09-29 19:11:00,
2013-09-29 14:16:00,73.1,53.7,30.02,NNE,22,1.0,6.0,50,0.00,,CLR,0.01,814.20,VWS V14.01,2013-09-29 19:16:00,
2013-09-29 14:21:00,73.1,54.2,30.02,NNE,21,0.0,0.0,52,0.00,,CLR,0.01,810.75,VWS V14.01,2013-09-29 19:21:00,
2013-09-29 14:26:00,73.7,55.3,30.02,NNE,21,0.0,0.0,52,0.00,,CLR,0.01,802.70,VWS V14.01,2013-09-29 19:26:00,
2013-09-29 14:31:00,74.0,54.5,30.01,NNE,28,7.0,7.0,50,0.00,,CLR,0.01,790.05,VWS V14.01,2013-09-29 19:31:00,
2013-09-29 14:36:00,73.5,53.5,30.01,NNE,33,0.0,0.0,50,0.00,,CLR,0.01,792.35,VWS V14.01,2013-09-29 19:36:00,
2013-09-29 14:41:00,72.8,53.4,30.01,NNE,33,2.0,2.0,50,0.00,,CLR,0.01,782.00,VWS V14.01,2013-09-29 19:41:00,
2013-09-29 14:46:00,73.3,53.3,30.01,NE,36,0.0,1.0,50,0.00,,CLR,0.01,770.50,VWS V14.01,2013-09-29 19:46:00,
2013-09-29 14:48:00,73.1,54.2,30.01,NE,36,0.0,0.0,52,0.00,,CLR,0.01,765.90,VWS V14.01,2013-09-29 19:48:00,
2013-09-29 14:53:00,74.0,53.9,30.01,NE,36,0.0,0.0,50,0.00,,CLR,0.01,760.15,VWS V14.01,2013-09-29 19:53:00,
2013-09-29 14:58:00,74.5,52.7,30.01,NE,36,0.0,4.0,46,0.00,,CLR,0.01,752.10,VWS V14.01,2013-09-29 19:58:00,
2013-09-29 15:03:00,74.0,52.8,30.00,NE,39,0.0,0.0,48,0.00,,CLR,0.01,741.75,VWS V14.01,2013-09-29 20:03:00,
2013-09-29 15:08:00,73.7,52.5,30.00,NE,38,0.0,0.0,48,0.00,,CLR,0.01,730.25,VWS V14.01,2013-09-29 20:08:00,
2013-09-29 15:13:00,74.0,53.9,30.00,NNE,31,0.0,0.0,50,0.00,,CLR,0.01,719.90,VWS V14.01,2013-09-29 20:13:00,
2013-09-29 15:18:00,73.7,52.5,29.99,NNE,31,0.0,0.0,48,0.00,,CLR,0.01,709.55,VWS V14.01,2013-09-29 20:18:00,
2013-09-29 15:23:00,73.7,52.0,29.99,North,355,0.0,0.0,46,0.00,,CLR,0.01,696.90,VWS V14.01,2013-09-29 20:23:00,
2013-09-29 15:28:00,73.5,51.2,29.99,North,355,0.0,0.0,46,0.00,,CLR,0.01,683.10,VWS V14.01,2013-09-29 20:28:00,
2013-09-29 15:33:00,74.0,52.2,29.99,North,350,0.0,1.0,46,0.00,,CLR,0.01,672.75,VWS V14.01,2013-09-29 20:33:00,
2013-09-29 15:38:00,73.7,51.4,29.99,North,355,0.0,0.0,46,0.00,,CLR,0.01,658.95,VWS V14.01,2013-09-29 20:38:00,
2013-09-29 15:43:00,74.2,50.0,29.99,North,11,5.0,5.0,42,0.00,,CLR,0.01,645.15,VWS V14.01,2013-09-29 20:43:00,
2013-09-29 15:48:00,74.4,50.2,29.98,NNE,30,0.0,4.0,42,0.00,,CLR,0.01,632.50,VWS V14.01,2013-09-29 20:48:00,
2013-09-29 15:53:00,74.0,49.8,29.98,NE,47,0.0,0.0,42,0.00,,CLR,0.01,621.00,VWS V14.01,2013-09-29 20:53:00,
2013-09-29 15:58:00,73.5,50.0,29.98,NE,46,0.0,1.0,44,0.00,,CLR,0.01,606.05,VWS V14.01,2013-09-29 20:58:00,
2013-09-29 16:03:00,74.2,50.0,29.98,NE,43,0.0,0.0,42,0.00,,CLR,0.01,589.95,VWS V14.01,2013-09-29 21:03:00,
2013-09-29 16:08:00,73.8,48.3,29.98,NE,43,0.0,0.0,40,0.00,,CLR,0.01,576.15,VWS V14.01,2013-09-29 21:08:00,
2013-09-29 16:13:00,74.2,48.7,29.98,NE,39,0.0,0.0,40,0.00,,CLR,0.01,562.35,VWS V14.01,2013-09-29 21:13:00,
2013-09-29 16:18:00,74.4,47.5,29.98,NE,39,0.0,0.0,38,0.00,,CLR,0.01,547.40,VWS V14.01,2013-09-29 21:18:00,
2013-09-29 16:23:00,74.0,49.2,29.98,NE,39,0.0,2.0,42,0.00,,CLR,0.01,530.15,VWS V14.01,2013-09-29 21:23:00,
2013-09-29 16:28:00,74.0,48.5,29.98,NE,41,0.0,4.0,40,0.00,,CLR,0.01,517.50,VWS V14.01,2013-09-29 21:28:00,
2013-09-29 16:33:00,73.8,47.7,29.97,NE,40,0.0,3.0,40,0.00,,CLR,0.01,499.10,VWS V14.01,2013-09-29 21:33:00,
2013-09-29 16:38:00,74.0,47.8,29.97,NE,46,0.0,0.0,40,0.00,,CLR,0.01,483.00,VWS V14.01,2013-09-29 21:38:00,
2013-09-29 16:43:00,74.0,48.5,29.97,NE,38,5.0,6.0,40,0.00,,CLR,0.01,466.90,VWS V14.01,2013-09-29 21:43:00,
2013-09-29 16:48:00,73.8,47.0,29.97,NE,34,0.0,0.0,38,0.00,,CLR,0.01,450.80,VWS V14.01,2013-09-29 21:48:00,
2013-09-29 16:53:00,73.7,48.9,29.97,NE,34,0.0,0.0,42,0.00,,CLR,0.01,432.40,VWS V14.01,2013-09-29 21:53:00,
2013-09-29 16:58:00,73.8,49.0,29.97,NE,35,2.0,4.0,42,0.00,,CLR,0.01,416.30,VWS V14.01,2013-09-29 21:58:00,
2013-09-29 17:03:00,73.8,47.7,29.97,NE,35,0.0,1.0,40,0.00,,CLR,0.01,397.90,VWS V14.01,2013-09-29 22:03:00,
2013-09-29 17:08:00,73.8,49.0,29.97,NE,36,3.0,4.0,42,0.00,,CLR,0.01,379.50,VWS V14.01,2013-09-29 22:08:00,
2013-09-29 17:13:00,73.8,48.3,29.97,NE,36,0.0,1.0,40,0.00,,CLR,0.01,362.25,VWS V14.01,2013-09-29 22:13:00,
2013-09-29 17:18:00,73.8,49.0,29.96,NE,36,1.0,4.0,42,0.00,,CLR,0.01,341.55,VWS V14.01,2013-09-29 22:18:00,
2013-09-29 17:23:00,73.8,47.7,29.96,NE,36,0.0,0.0,40,0.00,,CLR,0.01,323.15,VWS V14.01,2013-09-29 22:23:00,
2013-09-29 17:28:00,73.8,48.3,29.96,NE,38,2.0,3.0,40,0.00,,CLR,0.01,307.05,VWS V14.01,2013-09-29 22:28:00,
2013-09-29 17:33:00,73.8,49.6,29.96,NE,39,0.0,0.0,42,0.00,,CLR,0.01,285.20,VWS V14.01,2013-09-29 22:33:00,
2013-09-29 17:38:00,73.8,49.0,29.96,NE,39,0.0,0.0,42,0.00,,CLR,0.01,58.65,VWS V14.01,2013-09-29 22:38:00,
2013-09-29 17:43:00,73.7,49.5,29.96,NE,39,0.0,0.0,42,0.00,,CLR,0.01,52.90,VWS V14.01,2013-09-29 22:43:00,
2013-09-29 17:47:00,73.7,48.9,29.96,NE,40,0.0,0.0,42,0.00,,CLR,0.01,34.50,VWS V14.01,2013-09-29 22:47:00,
2013-09-29 17:52:00,73.5,49.3,29.96,NE,40,0.0,3.0,42,0.00,,CLR,0.01,40.25,VWS V14.01,2013-09-29 22:52:00,
2013-09-29 17:57:00,73.5,50.0,29.96,NE,40,0.0,0.0,44,0.00,,CLR,0.01,34.50,VWS V14.01,2013-09-29 22:57:00,
2013-09-29 18:02:00,73.3,49.8,29.96,NE,40,0.0,2.0,44,0.00,,CLR,0.01,32.20,VWS V14.01,2013-09-29 23:02:00,
2013-09-29 18:07:00,73.1,50.2,29.96,NE,40,0.0,0.0,44,0.00,,CLR,0.01,32.20,VWS V14.01,2013-09-29 23:07:00,
2013-09-29 18:12:00,73.1,50.2,29.96,NE,40,0.0,0.0,44,0.00,,CLR,0.01,29.90,VWS V14.01,2013-09-29 23:12:00,
2013-09-29 18:17:00,73.0,50.1,29.96,NE,40,0.0,2.0,44,0.00,,CLR,0.01,28.75,VWS V14.01,2013-09-29 23:17:00,
2013-09-29 18:22:00,72.8,50.0,29.96,NE,40,0.0,0.0,44,0.00,,CLR,0.01,32.20,VWS V14.01,2013-09-29 23:22:00,
2013-09-29 18:27:00,72.8,50.5,29.96,NE,40,0.0,3.0,46,0.00,,CLR,0.01,26.45,VWS V14.01,2013-09-29 23:27:00,
2013-09-29 18:32:00,72.8,51.7,29.95,NE,40,0.0,1.0,48,0.00,,CLR,0.01,40.25,VWS V14.01,2013-09-29 23:32:00,
2013-09-29 18:37:00,72.5,51.4,29.95,NE,39,0.0,3.0,48,0.00,,CLR,0.01,26.45,VWS V14.01,2013-09-29 23:37:00,
2013-09-29 18:42:00,72.3,51.8,29.95,NE,39,0.0,0.0,48,0.00,,CLR,0.01,21.85,VWS V14.01,2013-09-29 23:42:00,
2013-09-29 18:47:00,72.1,51.6,29.96,NE,38,0.0,0.0,48,0.00,,CLR,0.01,18.40,VWS V14.01,2013-09-29 23:47:00,
2013-09-29 18:52:00,71.9,51.5,29.96,NE,38,0.0,0.0,48,0.00,,CLR,0.01,13.80,VWS V14.01,2013-09-29 23:52:00,
2013-09-29 18:57:00,71.8,51.9,29.96,NE,38,0.0,0.0,50,0.00,,CLR,0.01,10.35,VWS V14.01,2013-09-29 23:57:00,
2013-09-29 19:02:00,71.6,52.3,29.96,NE,38,0.0,0.0,50,0.00,,CLR,0.01,5.75,VWS V14.01,2013-09-30 00:02:00,
2013-09-29 19:07:00,71.4,52.1,29.96,NE,38,0.0,0.0,50,0.00,,CLR,0.01,5.75,VWS V14.01,2013-09-30 00:07:00,
2013-09-29 19:12:00,71.1,51.8,29.96,NE,38,0.0,0.0,50,0.00,,CLR,0.01,0.00,VWS V14.01,2013-09-30 00:12:00,
2013-09-29 19:17:00,70.9,52.2,29.96,NE,38,0.0,0.0,52,0.00,,CLR,0.01,0.00,VWS V14.01,2013-09-30 00:17:00,
2013-09-29 19:22:00,70.6,51.9,29.96,NE,38,0.0,0.0,52,0.00,,CLR,0.01,0.00,VWS V14.01,2013-09-30 00:22:00,
2013-09-29 19:27:00,70.4,52.2,29.96,NE,38,0.0,0.0,52,0.00,,CLR,0.01,0.00,VWS V14.01,2013-09-30 00:27:00,
2013-09-29 19:32:00,70.2,53.0,29.96,NE,38,0.0,0.0,54,0.00,,CLR,0.01,0.00,VWS V14.01,2013-09-30 00:32:00,
2013-09-29 19:37:00,70.1,53.5,29.96,NE,38,0.0,0.0,56,0.00,,CLR,0.01,0.00,VWS V14.01,2013-09-30 00:37:00,
2013-09-29 19:42:00,69.7,52.6,29.96,NE,38,0.0,0.0,54,0.00,,CLR,0.01,0.00,VWS V14.01,2013-09-30 00:42:00,
2013-09-29 19:47:00,69.4,52.8,29.95,NE,38,0.0,0.0,56,0.00,,CLR,0.01,0.00,VWS V14.01,2013-09-30 00:47:00,
2013-09-29 19:52:00,69.1,52.5,29.95,NE,38,0.0,0.0,56,0.00,,CLR,0.01,0.00,VWS V14.01,2013-09-30 00:52:00,
2013-09-29 19:57:00,68.7,52.6,29.95,NE,38,0.0,0.0,56,0.00,,CLR,0.01,0.00,VWS V14.01,2013-09-30 00:57:00,
2013-09-29 20:02:00,68.4,52.8,29.96,NE,38,0.0,0.0,58,0.00,,CLR,0.01,0.00,VWS V14.01,2013-09-30 01:02:00,
2013-09-29 20:07:00,68.1,53.0,29.96,NE,38,0.0,0.0,58,0.00,,CLR,0.01,0.00,VWS V14.01,2013-09-30 01:07:00,
2013-09-29 20:12:00,67.7,52.6,29.96,NE,38,0.0,0.0,58,0.00,,CLR,0.01,0.00,VWS V14.01,2013-09-30 01:12:00,
2013-09-29 20:17:00,67.4,52.8,29.96,NE,38,0.0,0.0,60,0.00,,CLR,0.01,0.00,VWS V14.01,2013-09-30 01:17:00,
2013-09-29 20:22:00,66.9,52.3,29.96,NE,38,0.0,0.0,60,0.00,,CLR,0.01,0.00,VWS V14.01,2013-09-30 01:22:00,
2013-09-29 20:27:00,66.7,53.1,29.96,NE,38,0.0,0.0,62,0.00,,CLR,0.01,0.00,VWS V14.01,2013-09-30 01:27:00,
2013-09-29 20:32:00,66.4,52.8,29.96,NE,38,0.0,0.0,62,0.00,,CLR,0.01,0.00,VWS V14.01,2013-09-30 01:32:00,
2013-09-29 20:37:00,66.2,52.6,29.96,NE,38,0.0,0.0,62,0.00,,CLR,0.01,0.00,VWS V14.01,2013-09-30 01:37:00,
2013-09-29 20:42:00,66.1,52.5,29.96,NE,38,0.0,0.0,62,0.00,,CLR,0.01,0.00,VWS V14.01,2013-09-30 01:42:00,
2013-09-29 20:47:00,65.8,52.7,29.96,NE,38,0.0,0.0,62,0.00,,CLR,0.01,0.00,VWS V14.01,2013-09-30 01:47:00,
2013-09-29 20:52:00,65.6,52.9,29.96,NE,38,0.0,0.0,64,0.00,,CLR,0.01,0.00,VWS V14.01,2013-09-30 01:52:00,
2013-09-29 20:57:00,65.4,52.7,29.96,NE,38,0.0,0.0,64,0.00,,CLR,0.01,0.00,VWS V14.01,2013-09-30 01:57:00,
2013-09-29 21:02:00,65.3,53.0,29.96,NE,38,0.0,0.0,64,0.00,,CLR,0.01,0.00,VWS V14.01,2013-09-30 02:02:00,
2013-09-29 21:07:00,65.0,52.8,29.96,NE,38,0.0,0.0,64,0.00,,CLR,0.01,0.00,VWS V14.01,2013-09-30 02:07:00,
2013-09-29 21:12:00,64.8,53.0,29.96,NE,38,0.0,0.0,66,0.00,,CLR,0.01,0.00,VWS V14.01,2013-09-30 02:12:00,
2013-09-29 21:17:00,64.6,53.2,29.96,NE,38,0.0,0.0,66,0.00,,CLR,0.01,0.00,VWS V14.01,2013-09-30 02:17:00,
2013-09-29 21:22:00,64.5,53.1,29.96,NE,38,0.0,0.0,66,0.00,,CLR,0.01,0.00,VWS V14.01,2013-09-30 02:22:00,
2013-09-29 21:27:00,64.1,53.1,29.96,NE,38,0.0,0.0,68,0.00,,CLR,0.01,0.00,VWS V14.01,2013-09-30 02:27:00,
2013-09-29 21:32:00,64.0,53.0,29.96,NE,38,0.0,0.0,68,0.00,,CLR,0.01,0.00,VWS V14.01,2013-09-30 02:32:00,
2013-09-29 21:37:00,63.8,53.2,29.96,NE,38,0.0,0.0,68,0.00,,CLR,0.01,0.00,VWS V14.01,2013-09-30 02:37:00,
2013-09-29 21:42:00,63.7,53.2,29.96,NE,38,0.0,0.0,68,0.00,,CLR,0.01,0.00,VWS V14.01,2013-09-30 02:42:00,
2013-09-29 21:47:00,63.3,52.8,29.96,NE,38,0.0,0.0,68,0.00,,CLR,0.01,0.00,VWS V14.01,2013-09-30 02:47:00,
2013-09-29 21:52:00,63.2,52.7,29.96,NE,38,0.0,0.0,68,0.00,,CLR,0.01,0.00,VWS V14.01,2013-09-30 02:52:00,
2013-09-29 21:57:00,63.0,52.9,29.96,NE,38,0.0,0.0,70,0.00,,CLR,0.01,0.00,VWS V14.01,2013-09-30 02:57:00,
2013-09-29 22:02:00,62.9,53.2,29.96,NE,38,0.0,0.0,70,0.00,,CLR,0.01,0.00,VWS V14.01,2013-09-30 03:02:00,
2013-09-29 22:07:00,62.7,53.4,29.96,NE,38,0.0,0.0,72,0.00,,CLR,0.01,0.00,VWS V14.01,2013-09-30 03:07:00,
2013-09-29 22:12:00,62.4,53.1,29.96,NE,38,0.0,0.0,72,0.00,,CLR,0.01,0.00,VWS V14.01,2013-09-30 03:12:00,
2013-09-29 22:17:00,62.2,52.9,29.96,NE,38,0.0,0.0,72,0.00,,CLR,0.01,0.00,VWS V14.01,2013-09-30 03:17:00,
2013-09-29 22:22:00,62.1,53.2,29.96,NE,38,0.0,0.0,72,0.00,,CLR,0.01,0.00,VWS V14.01,2013-09-30 03:22:00,
2013-09-29 22:27:00,61.9,53.0,29.96,NE,38,0.0,0.0,72,0.00,,CLR,0.01,0.00,VWS V14.01,2013-09-30 03:27:00,
2013-09-29 22:32:00,61.8,52.9,29.97,NE,38,0.0,0.0,72,0.00,,CLR,0.01,0.00,VWS V14.01,2013-09-30 03:32:00,
2013-09-29 22:37:00,61.6,52.7,29.97,NE,38,0.0,0.0,72,0.00,,CLR,0.01,0.00,VWS V14.01,2013-09-30 03:37:00,
2013-09-29 22:42:00,61.4,52.9,29.97,NE,38,0.0,0.0,74,0.00,,CLR,0.01,0.00,VWS V14.01,2013-09-30 03:42:00,
2013-09-29 22:47:00,61.3,52.8,29.97,NE,38,0.0,0.0,74,0.00,,CLR,0.01,0.00,VWS V14.01,2013-09-30 03:47:00,
2013-09-29 22:52:00,61.3,52.8,29.97,NE,38,0.0,0.0,74,0.00,,CLR,0.01,0.00,VWS V14.01,2013-09-30 03:52:00,
2013-09-29 22:57:00,61.1,52.9,29.97,NE,38,0.0,0.0,74,0.00,,CLR,0.01,0.00,VWS V14.01,2013-09-30 03:57:00,
2013-09-29 23:01:00,61.0,52.8,29.97,NE,38,0.0,0.0,74,0.00,,CLR,0.01,0.00,VWS V14.01,2013-09-30 04:01:00,
2013-09-29 23:02:00,61.0,52.8,29.97,NE,38,0.0,0.0,74,0.00,,CLR,0.01,0.00,VWS V14.01,2013-09-30 04:02:00,
2013-09-29 23:07:00,60.8,53.0,29.97,NE,38,0.0,0.0,76,0.00,,CLR,0.01,0.00,VWS V14.01,2013-09-30 04:07:00,
2013-09-29 23:12:00,60.8,53.0,29.97,NE,38,0.0,0.0,76,0.00,,CLR,0.01,0.00,VWS V14.01,2013-09-30 04:12:00,
2013-09-29 23:17:00,60.7,52.9,29.97,NE,38,0.0,0.0,76,0.00,,CLR,0.01,0.00,VWS V14.01,2013-09-30 04:17:00,
2013-09-29 23:22:00,60.5,52.7,29.97,NE,38,0.0,0.0,76,0.00,,CLR,0.01,0.00,VWS V14.01,2013-09-30 04:22:00,
2013-09-29 23:27:00,60.3,52.5,29.97,NE,38,0.0,0.0,76,0.00,,CLR,0.01,0.00,VWS V14.01,2013-09-30 04:27:00,
2013-09-29 23:32:00,60.3,52.5,29.96,NE,38,0.0,0.0,76,0.00,,CLR,0.01,0.00,VWS V14.01,2013-09-30 04:32:00,
2013-09-29 23:37:00,60.2,52.4,29.96,NE,38,0.0,0.0,76,0.00,,CLR,0.01,0.00,VWS V14.01,2013-09-30 04:37:00,
2013-09-29 23:42:00,60.0,52.6,29.96,NE,38,0.0,0.0,76,0.00,,CLR,0.01,0.00,VWS V14.01,2013-09-30 04:42:00,
2013-09-29 23:47:00,60.0,52.6,29.96,NE,38,0.0,0.0,76,0.00,,CLR,0.01,0.00,VWS V14.01,2013-09-30 04:47:00,
2013-09-29 23:52:00,59.9,52.5,29.96,NE,38,0.0,0.0,76,0.00,,CLR,0.01,0.00,VWS V14.01,2013-09-30 04:52:00,
2013-09-29 23:57:00,59.7,52.3,29.96,NE,38,0.0,0.0,76,0.00,,CLR,0.01,0.00,VWS V14.01,2013-09-30 04:57:00,